Terminal Aerodrome Forecast
Issued by NWS Bismarck, ND

Home | Current Version | Previous Version | Graphics & Text | Print | Product List | Glossary On
Versions: 1 2 3 4 5 6 7 8 9 10 11 12 13 14 15 16 17 18 19 20 21 22
278
FTUS43 KBIS 011741
TAFISN
TAF
KISN 011741Z 0118/0218 VRB03KT P6SM VCSH OVC020
     FM020000 VRB03KT P6SM OVC012
     FM020800 00000KT P6SM BKN008
     FM021600 00000KT P6SM OVC010=

USA.gov is the U.S. government's official web portal to all federal, state and local government web resources and services.